Newton Junction, New Hampshire
Current Conditions -  °F | °C
As of 3:54 AM on Saturday 22 Nov 2014 (Local Time) from KLWM Reporting Station
Clear Clear  
Wind Chill: 13°   Ceiling: Unl
Heat Index: 23°   Visibility: 10mi
Dew Point: 11°   Wind: 9mph
Humidity: 60%   Direction: 230°SW
Pressure: 30.41"   Gusts: NA
Location:  42.87°N, 71.07°W
Report Text: KLWM 220854Z AUTO 23008KT 10SM CLR M05/M12 A3041 RMK AO2 SLP300 T10501117 58003
Loading
Personal Weather Stations






























Interactive Weather Map New forecast layout! Learn more

10-Day Weather Forecast

Advertisements
Track Severe Weather on mobile